Time;durP1;ratioP1;P1;durP2;ratioP2;P2;SDS_P1;SDS_P2;PMS_P1;PMS_P2;Temp;Humidity;BMP_temperature;BMP_pressure;BME280_temperature;BME280_humidity;BME280_pressure;Samples;Min_cycle;Max_cycle;Signal;HPM_P1;HPM_P2
2023/05/29 00:02:04;;;;;;;4.75;1.27;;;13.50;73.10;;;;;;4953853;29;20036;-67
2023/05/29 00:04:32;;;;;;;4.35;1.20;;;13.60;72.60;;;;;;4954271;29;20035;-67
2023/05/29 00:06:59;;;;;;;1.27;1.00;;;13.70;72.80;;;;;;4954131;29;20039;-67
2023/05/29 00:09:28;;;;;;;1.15;0.90;;;13.70;72.60;;;;;;4953999;28;20039;-67
2023/05/29 00:11:55;;;;;;;1.63;0.98;;;13.70;72.30;;;;;;4954145;29;20042;-67
2023/05/29 00:14:23;;;;;;;2.58;1.05;;;13.80;72.00;;;;;;4937170;29;20498;-67
2023/05/29 00:16:52;;;;;;;2.47;0.90;;;13.90;72.10;;;;;;4954140;29;20043;-67
2023/05/29 00:19:20;;;;;;;2.67;1.10;;;13.90;71.80;;;;;;4953979;28;20043;-67
2023/05/29 00:21:48;;;;;;;3.70;1.05;;;14.00;71.90;;;;;;4954163;29;20079;-67
2023/05/29 00:24:20;;;;;;;1.58;0.85;;;14.00;71.50;;;;;;4953881;29;20031;-67
2023/05/29 00:26:47;;;;;;;3.25;0.85;;;14.00;70.90;;;;;;4953600;29;20039;-67
2023/05/29 00:29:15;;;;;;;2.33;1.13;;;14.10;70.70;;;;;;4953890;28;20024;-67
2023/05/29 00:31:42;;;;;;;3.42;0.73;;;14.10;70.50;;;;;;4920986;29;20031;-67
2023/05/29 00:34:10;;;;;;;1.67;1.10;;;14.10;70.30;;;;;;4954163;29;20083;-67
2023/05/29 00:36:38;;;;;;;1.90;0.75;;;14.20;70.20;;;;;;4937085;29;20046;-67
2023/05/29 00:39:05;;;;;;;4.32;0.80;;;14.20;70.10;;;;;;4957165;28;20521;-67
2023/05/29 00:41:33;;;;;;;3.70;1.00;;;14.20;69.40;;;;;;4957741;29;20036;-67
2023/05/29 00:44:00;;;;;;;2.45;0.70;;;14.30;69.20;;;;;;4957667;29;20058;-67
2023/05/29 00:46:29;;;;;;;1.52;0.60;;;14.30;68.80;;;;;;4957889;29;20035;-67
2023/05/29 00:48:57;;;;;;;0.77;0.52;;;14.40;68.70;;;;;;4940483;29;20043;-67
2023/05/29 00:51:25;;;;;;;2.22;0.77;;;14.40;68.40;;;;;;4957605;29;20505;-67
2023/05/29 00:53:52;;;;;;;0.73;0.73;;;14.50;68.40;;;;;;4924881;29;20114;-67
2023/05/29 00:56:21;;;;;;;0.90;0.65;;;14.50;68.00;;;;;;4940364;29;20031;-67
2023/05/29 00:58:49;;;;;;;0.63;0.50;;;14.60;68.00;;;;;;4940357;29;20051;-67
2023/05/29 01:01:18;;;;;;;2.15;0.57;;;14.70;67.70;;;;;;4957199;29;20032;-67
2023/05/29 01:03:45;;;;;;;2.83;0.65;;;14.70;67.40;;;;;;4924655;29;20087;-67
2023/05/29 01:06:13;;;;;;;1.98;0.80;;;14.70;67.30;;;;;;4957267;29;20437;-67
2023/05/29 01:08:40;;;;;;;1.90;0.63;;;14.70;67.80;;;;;;4957174;28;20036;-67
2023/05/29 01:11:46;;;;;;;0.82;0.65;;;14.80;67.50;;;;;;4957003;29;20406;-67
2023/05/29 01:14:32;;;;;;;1.48;0.47;;;14.80;67.50;;;;;;4957133;29;20042;-67
2023/05/29 01:17:11;;;;;;;1.10;0.55;;;14.90;67.30;;;;;;4926587;29;20046;-67
2023/05/29 01:19:57;;;;;;;0.25;0.25;;;15.00;66.70;;;;;;4924527;29;20102;-67
2023/05/29 01:23:03;;;;;;;4.07;1.23;;;15.00;66.30;;;;;;4956866;29;20103;-67
2023/05/29 01:25:54;;;;;;;3.30;0.70;;;15.10;66.10;;;;;;4942270;29;20039;-67
2023/05/29 01:28:22;;;;;;;1.83;0.60;;;15.20;66.00;;;;;;4956666;28;20035;-67
2023/05/29 01:30:51;;;;;;;0.88;0.60;;;15.20;66.00;;;;;;4957252;29;20054;-67
2023/05/29 01:33:19;;;;;;;0.82;0.60;;;15.20;65.10;;;;;;4939917;29;20599;-67
2023/05/29 01:35:46;;;;;;;2.83;0.50;;;15.20;65.20;;;;;;4956644;29;20031;-67
2023/05/29 01:38:14;;;;;;;2.83;1.10;;;15.20;65.10;;;;;;4956700;28;20071;-67
2023/05/29 01:40:41;;;;;;;1.27;0.82;;;15.20;64.80;;;;;;4956615;29;20118;-67
2023/05/29 01:43:09;;;;;;;2.50;0.73;;;15.20;64.50;;;;;;4939842;29;20054;-67
2023/05/29 01:45:36;;;;;;;2.15;0.80;;;15.20;64.50;;;;;;4956631;29;20118;-67
2023/05/29 01:48:04;;;;;;;2.90;1.05;;;15.30;64.80;;;;;;4939345;29;20097;-67
2023/05/29 01:50:31;;;;;;;1.73;0.95;;;15.30;65.20;;;;;;4939119;29;20032;-67
2023/05/29 01:52:59;;;;;;;2.90;1.10;;;15.40;65.40;;;;;;4939434;29;20409;-67
2023/05/29 01:55:26;;;;;;;1.35;0.95;;;15.50;65.10;;;;;;4956502;29;20074;-67
2023/05/29 01:57:54;;;;;;;1.83;1.13;;;15.50;64.90;;;;;;4939172;29;20187;-67
2023/05/29 02:00:21;;;;;;;2.60;0.65;;;15.60;65.00;;;;;;4939388;29;20043;-67
2023/05/29 02:02:49;;;;;;;1.15;0.68;;;15.70;64.80;;;;;;4956441;29;20066;-67
2023/05/29 02:05:17;;;;;;;2.13;0.70;;;15.70;64.70;;;;;;4956062;29;20046;-67
2023/05/29 02:07:45;;;;;;;1.98;0.82;;;15.70;65.10;;;;;;4956115;28;20482;-67
2023/05/29 02:10:12;;;;;;;1.52;0.80;;;15.80;65.00;;;;;;4956077;29;20034;-67
2023/05/29 02:12:40;;;;;;;2.47;0.95;;;15.90;65.30;;;;;;4939523;29;20027;-67
2023/05/29 02:15:08;;;;;;;1.67;0.90;;;15.90;65.00;;;;;;4955916;29;20027;-67
2023/05/29 02:17:35;;;;;;;0.60;0.60;;;15.90;64.60;;;;;;4938496;28;20046;-67
2023/05/29 02:20:04;;;;;;;2.80;0.70;;;15.90;64.90;;;;;;4956077;29;20045;-67
2023/05/29 02:22:31;;;;;;;1.80;0.68;;;16.00;64.50;;;;;;4923428;29;20042;-67
2023/05/29 02:24:59;;;;;;;0.93;0.80;;;16.00;64.40;;;;;;4955919;29;20066;-67
2023/05/29 02:27:26;;;;;;;0.40;0.40;;;15.90;63.60;;;;;;4955360;28;20435;-67
2023/05/29 02:29:54;;;;;;;0.50;0.50;;;16.00;62.80;;;;;;4955692;29;20043;-67
2023/05/29 02:32:22;;;;;;;1.05;0.68;;;16.00;62.30;;;;;;4955516;29;20044;-67
2023/05/29 02:34:50;;;;;;;1.00;0.70;;;16.00;62.00;;;;;;4938761;29;20035;-67
2023/05/29 02:37:17;;;;;;;1.95;0.75;;;15.90;61.90;;;;;;4955409;29;20027;-67
2023/05/29 02:39:45;;;;;;;1.25;0.73;;;16.00;62.90;;;;;;4955441;28;20537;-67
2023/05/29 02:42:12;;;;;;;0.52;0.52;;;16.00;62.70;;;;;;4938554;29;20043;-67
2023/05/29 02:44:40;;;;;;;0.82;0.50;;;16.10;61.90;;;;;;4938133;29;20090;-67
2023/05/29 02:47:07;;;;;;;0.85;0.55;;;16.10;62.00;;;;;;4955288;29;20509;-65
2023/05/29 02:49:34;;;;;;;3.22;0.70;;;16.10;61.80;;;;;;4955564;28;20375;-67
2023/05/29 02:52:02;;;;;;;1.25;0.60;;;16.10;61.50;;;;;;4955484;29;20027;-67
2023/05/29 02:54:29;;;;;;;1.45;0.70;;;16.20;61.20;;;;;;4955219;29;20047;-67
2023/05/29 02:56:57;;;;;;;4.43;0.60;;;16.20;61.30;;;;;;4955437;29;20478;-67
2023/05/29 02:59:24;;;;;;;1.63;0.50;;;16.20;61.00;;;;;;4955197;28;20095;-67
2023/05/29 03:01:52;;;;;;;1.60;0.70;;;16.20;60.80;;;;;;4954263;28;20031;-67
2023/05/29 03:04:20;;;;;;;1.13;0.60;;;16.20;60.80;;;;;;4955083;29;20050;-67
2023/05/29 03:06:47;;;;;;;3.28;0.80;;;16.30;60.60;;;;;;4955044;29;20032;-68
2023/05/29 03:09:16;;;;;;;0.95;0.40;;;16.30;60.70;;;;;;4955039;28;20118;-67
2023/05/29 03:11:44;;;;;;;0.90;0.47;;;16.30;60.40;;;;;;4937994;29;20402;-67
2023/05/29 03:14:12;;;;;;;0.60;0.60;;;16.30;60.30;;;;;;4955099;29;20039;-68
2023/05/29 03:16:40;;;;;;;8.68;0.65;;;16.40;60.30;;;;;;4955126;29;20035;-67
2023/05/29 03:19:08;;;;;;;0.75;0.52;;;16.40;60.20;;;;;;4954731;28;20042;-67
2023/05/29 03:21:35;;;;;;;0.95;0.50;;;16.50;59.90;;;;;;4954836;29;20035;-67
2023/05/29 03:24:03;;;;;;;0.50;0.43;;;16.50;59.50;;;;;;4937778;29;20043;-68
2023/05/29 03:26:31;;;;;;;0.60;0.40;;;16.50;59.20;;;;;;4937964;29;20039;-68
2023/05/29 03:28:58;;;;;;;1.95;0.43;;;16.50;59.10;;;;;;4937828;29;20110;-67
2023/05/29 03:31:25;;;;;;;1.80;0.20;;;16.50;58.60;;;;;;4938027;29;20031;-67
2023/05/29 03:33:53;;;;;;;3.80;1.13;;;16.60;58.30;;;;;;4921855;29;20035;-68
2023/05/29 03:36:20;;;;;;;17.08;2.65;;;16.50;58.40;;;;;;4954698;29;20042;-68
2023/05/29 03:38:48;;;;;;;5.38;1.00;;;16.60;58.40;;;;;;4954563;28;20077;-67
2023/05/29 03:41:15;;;;;;;0.50;0.50;;;16.60;58.00;;;;;;4954632;29;20034;-68
2023/05/29 03:43:43;;;;;;;1.05;0.35;;;16.70;57.70;;;;;;4954586;29;20039;-68
2023/05/29 03:46:10;;;;;;;2.30;0.52;;;16.70;57.80;;;;;;4954432;29;20513;-68
2023/05/29 03:48:37;;;;;;;9.93;0.70;;;16.70;57.70;;;;;;4954400;28;20500;-68
2023/05/29 03:51:06;;;;;;;4.80;0.63;;;16.70;57.40;;;;;;4954697;29;20035;-67
2023/05/29 03:53:33;;;;;;;6.28;0.85;;;16.80;56.90;;;;;;4937271;29;20070;-68
2023/05/29 03:56:01;;;;;;;5.22;0.70;;;16.80;56.60;;;;;;4954151;29;20063;-68
2023/05/29 03:58:28;;;;;;;2.15;0.98;;;16.70;56.80;;;;;;4954270;28;20490;-68
2023/05/29 04:00:56;;;;;;;7.90;1.50;;;16.70;56.70;;;;;;4954442;29;20035;-68
2023/05/29 04:03:23;;;;;;;4.15;0.70;;;16.70;56.90;;;;;;4954283;29;20409;-68
2023/05/29 04:05:51;;;;;;;0.63;0.60;;;16.70;56.60;;;;;;4937300;29;20059;-68
2023/05/29 04:08:18;;;;;;;0.85;0.50;;;16.70;56.30;;;;;;4954259;28;20057;-68
2023/05/29 04:10:46;;;;;;;2.40;0.98;;;16.70;56.30;;;;;;4954131;29;20070;-68
2023/05/29 04:13:13;;;;;;;4.60;0.93;;;16.70;56.00;;;;;;4956255;28;20032;-68
2023/05/29 04:15:42;;;;;;;1.40;0.90;;;16.80;55.90;;;;;;4941051;29;20494;-68
2023/05/29 04:18:09;;;;;;;1.85;1.10;;;16.80;55.60;;;;;;4958313;28;20055;-68
2023/05/29 04:20:37;;;;;;;3.45;0.95;;;16.80;55.40;;;;;;4958309;29;20375;-68
2023/05/29 04:23:04;;;;;;;19.55;2.45;;;16.80;55.50;;;;;;4958048;29;20053;-68
2023/05/29 04:25:32;;;;;;;12.95;1.65;;;16.80;55.40;;;;;;4940861;29;20047;-68
2023/05/29 04:28:02;;;;;;;8.45;1.02;;;16.80;55.40;;;;;;4940900;29;20031;-69
2023/05/29 04:30:32;;;;;;;8.45;1.30;;;16.80;55.00;;;;;;4957920;29;20102;-68
2023/05/29 04:32:59;;;;;;;10.63;1.10;;;16.80;54.70;;;;;;4957889;29;20035;-68
2023/05/29 04:35:28;;;;;;;3.78;0.88;;;16.80;54.90;;;;;;4957583;29;20040;-68
2023/05/29 04:37:56;;;;;;;1.00;0.60;;;16.80;53.90;;;;;;4957518;28;20071;-68
2023/05/29 04:40:23;;;;;;;0.98;0.55;;;16.80;54.10;;;;;;4957735;29;20035;-68
2023/05/29 04:42:52;;;;;;;3.45;0.90;;;16.80;53.60;;;;;;4957419;29;20047;-68
2023/05/29 04:45:21;;;;;;;2.35;1.00;;;16.80;53.60;;;;;;4957765;29;20461;-68
2023/05/29 04:47:49;;;;;;;1.13;0.73;;;16.80;53.50;;;;;;4957449;28;20494;-67
2023/05/29 04:50:17;;;;;;;2.55;0.90;;;16.80;53.40;;;;;;4957816;29;20031;-68
2023/05/29 04:52:45;;;;;;;4.03;0.77;;;16.80;53.80;;;;;;4957408;29;20120;-68
2023/05/29 04:55:12;;;;;;;3.33;0.90;;;16.70;53.60;;;;;;4957456;29;20379;-68
2023/05/29 04:57:40;;;;;;;1.98;0.88;;;16.80;53.80;;;;;;4957364;28;20041;-67
2023/05/29 05:00:13;;;;;;;2.60;0.80;;;16.80;53.80;;;;;;4940547;29;20043;-67
2023/05/29 05:02:44;;;;;;;3.90;0.90;;;16.70;53.60;;;;;;4957499;29;20035;-68
2023/05/29 05:05:12;;;;;;;2.97;0.80;;;16.80;53.20;;;;;;4940673;29;20059;-67
2023/05/29 05:07:39;;;;;;;0.70;0.70;;;16.70;53.10;;;;;;4957162;28;20031;-68
2023/05/29 05:10:07;;;;;;;6.70;0.85;;;16.80;52.80;;;;;;4957056;29;20146;-68
2023/05/29 05:12:35;;;;;;;4.30;0.95;;;16.70;52.60;;;;;;4957364;29;20044;-68
2023/05/29 05:15:03;;;;;;;9.45;1.30;;;16.80;51.30;;;;;;4957507;28;20477;-68
2023/05/29 05:17:30;;;;;;;1.77;0.70;;;16.80;51.00;;;;;;4969378;28;20078;-68
2023/05/29 05:19:57;;;;;;;2.40;0.80;;;16.70;50.80;;;;;;4976240;28;20542;-68
2023/05/29 05:22:25;;;;;;;2.40;1.10;;;16.70;50.60;;;;;;4975414;28;20053;-68
2023/05/29 05:24:54;;;;;;;2.78;0.90;;;16.70;50.90;;;;;;4974789;28;20092;-68
2023/05/29 05:27:21;;;;;;;0.98;0.80;;;16.70;51.10;;;;;;4974670;28;20089;-68
2023/05/29 05:29:49;;;;;;;1.88;1.05;;;16.70;51.30;;;;;;4976055;28;20043;-68
2023/05/29 05:32:16;;;;;;;1.92;1.02;;;16.70;51.40;;;;;;4974737;28;20035;-68
2023/05/29 05:34:43;;;;;;;3.10;1.38;;;16.70;51.90;;;;;;4975676;28;20041;-68
2023/05/29 05:37:11;;;;;;;2.15;0.90;;;16.70;51.80;;;;;;4934446;29;20047;-65
2023/05/29 05:39:38;;;;;;;1.15;0.70;;;16.70;52.10;;;;;;4953596;28;20413;-67
2023/05/29 05:42:06;;;;;;;1.33;1.00;;;16.70;52.00;;;;;;4953623;29;20042;-67
2023/05/29 05:44:33;;;;;;;4.47;1.10;;;16.60;52.20;;;;;;4955845;28;20062;-67
2023/05/29 05:47:01;;;;;;;0.80;0.80;;;16.60;52.30;;;;;;4959441;28;20110;-66
2023/05/29 05:49:28;;;;;;;2.38;1.30;;;16.60;52.50;;;;;;4948090;29;20051;-67
2023/05/29 05:51:56;;;;;;;3.22;0.85;;;16.70;52.80;;;;;;4948784;29;20465;-67
2023/05/29 05:54:23;;;;;;;4.70;1.20;;;16.70;51.20;;;;;;4953635;28;20047;-67
2023/05/29 05:56:51;;;;;;;1.75;0.90;;;16.70;51.00;;;;;;4957276;28;20035;-66
2023/05/29 05:59:18;;;;;;;1.10;0.80;;;16.70;51.20;;;;;;4952161;28;20047;-67
2023/05/29 06:01:46;;;;;;;0.98;0.88;;;16.60;51.10;;;;;;4953751;28;20147;-67
2023/05/29 06:04:14;;;;;;;7.82;1.10;;;16.60;51.00;;;;;;4936519;29;20050;-67
2023/05/29 06:06:41;;;;;;;2.50;0.90;;;16.60;51.00;;;;;;4962850;28;20042;-67
2023/05/29 07:42:27;;;;;;;2.08;1.40;;;15.70;52.50;;;;;;4944203;28;20165;-67
2023/05/29 07:44:54;;;;;;;1.60;1.15;;;15.70;52.60;;;;;;4953564;28;20050;-66
2023/05/29 07:47:22;;;;;;;3.03;1.23;;;15.70;52.50;;;;;;4952816;28;20453;-66
2023/05/29 07:49:50;;;;;;;1.88;1.30;;;15.70;52.80;;;;;;4949309;28;20062;-67
2023/05/29 07:52:17;;;;;;;2.20;1.17;;;15.70;52.90;;;;;;4950409;29;20062;-68
2023/05/29 07:54:44;;;;;;;1.70;1.00;;;15.70;52.90;;;;;;4951727;28;20075;-68
2023/05/29 07:57:12;;;;;;;2.40;1.10;;;15.70;52.90;;;;;;4917876;29;20405;-65
2023/05/29 07:59:41;;;;;;;3.03;1.15;;;15.70;52.70;;;;;;4932927;29;20097;-67
2023/05/29 08:02:09;;;;;;;3.10;0.90;;;15.70;52.40;;;;;;4949952;29;20041;-68
2023/05/29 08:04:37;;;;;;;10.25;1.40;;;15.70;52.10;;;;;;4949191;28;20075;-67
2023/05/29 08:07:04;;;;;;;1.85;1.00;;;15.70;51.80;;;;;;4951951;28;20039;-67
2023/05/29 08:09:35;;;;;;;3.22;1.00;;;15.70;51.80;;;;;;4947873;28;20095;-67
2023/05/29 08:12:03;;;;;;;1.88;1.05;;;15.70;51.70;;;;;;4947097;28;20122;-68
2023/05/29 08:14:31;;;;;;;2.63;1.17;;;15.70;51.60;;;;;;4932457;29;20409;-68
2023/05/29 08:16:58;;;;;;;3.15;1.65;;;15.70;51.60;;;;;;4951017;28;20034;-70
2023/05/29 08:19:26;;;;;;;1.80;1.20;;;15.70;51.70;;;;;;4949366;28;20126;-69
2023/05/29 08:21:53;;;;;;;2.00;1.25;;;15.60;51.70;;;;;;4951469;29;20402;-69
2023/05/29 08:24:21;;;;;;;9.52;3.40;;;15.60;51.60;;;;;;4952740;28;20048;-68
2023/05/29 08:26:48;;;;;;;7.18;3.03;;;15.60;51.70;;;;;;4947824;28;20054;-69
2023/05/29 08:29:16;;;;;;;3.85;1.60;;;15.60;51.90;;;;;;4949879;28;20042;-69
2023/05/29 08:31:43;;;;;;;3.17;1.50;;;15.60;52.10;;;;;;4949660;28;20126;-68
2023/05/29 08:34:11;;;;;;;2.83;1.40;;;15.60;52.20;;;;;;4952407;28;20594;-69
2023/05/29 08:36:41;;;;;;;1.88;1.20;;;15.60;52.20;;;;;;4950564;28;20118;-68
2023/05/29 08:39:13;;;;;;;1.92;1.20;;;15.50;52.30;;;;;;4951947;28;20126;-68
2023/05/29 11:10:44;;;;;;;7.95;3.05;;;13.90;61.80;;;;;;4942677;28;20203;-66
2023/05/29 11:13:34;;;;;;;8.85;2.95;;;13.80;62.40;;;;;;4950178;29;20066;-67
2023/05/29 11:16:19;;;;;;;10.18;3.47;;;13.70;62.70;;;;;;4937810;29;20035;-67
2023/05/29 11:18:48;;;;;;;5.60;3.15;;;13.70;62.90;;;;;;4952030;28;20051;-65
2023/05/29 11:21:24;;;;;;;5.80;2.95;;;13.70;63.00;;;;;;4970013;28;20039;-66
2023/05/29 11:23:52;;;;;;;6.50;2.83;;;13.60;63.10;;;;;;4952063;28;20047;-66
2023/05/29 11:26:24;;;;;;;7.07;3.03;;;13.60;63.60;;;;;;4950289;29;20397;-67
2023/05/29 11:28:51;;;;;;;7.90;2.95;;;13.60;63.70;;;;;;4951485;28;20059;-66
2023/05/29 11:31:22;;;;;;;10.52;3.70;;;13.60;63.70;;;;;;4951342;28;20085;-65
2023/05/29 11:33:50;;;;;;;7.95;2.80;;;13.50;63.70;;;;;;4938514;28;20041;-66
2023/05/29 11:36:22;;;;;;;8.95;3.42;;;13.50;63.80;;;;;;4970758;28;20356;-66
2023/05/29 11:38:51;;;;;;;8.40;3.05;;;13.60;64.00;;;;;;4939809;28;20045;-67
2023/05/29 11:41:18;;;;;;;6.78;3.17;;;13.50;65.00;;;;;;4933835;28;20039;-66
2023/05/29 11:43:56;;;;;;;6.55;3.05;;;13.50;64.80;;;;;;4951773;28;20063;-66
2023/05/29 11:46:26;;;;;;;7.15;3.28;;;13.40;64.50;;;;;;4951673;28;20045;-66
2023/05/29 11:48:53;;;;;;;5.60;2.83;;;13.30;65.40;;;;;;4950698;28;20034;-68
2023/05/29 11:51:21;;;;;;;7.45;3.28;;;13.30;65.40;;;;;;4950202;28;20586;-68
2023/05/29 11:53:48;;;;;;;6.75;3.47;;;13.20;65.70;;;;;;4947736;28;20038;-68
2023/05/29 11:56:16;;;;;;;6.30;3.20;;;13.20;65.80;;;;;;4935691;29;20083;-67
2023/05/29 11:58:43;;;;;;;8.95;3.28;;;13.20;65.80;;;;;;4958723;28;20047;-69
2023/05/29 12:01:11;;;;;;;6.57;2.72;;;13.20;65.30;;;;;;4949937;28;20022;-67
2023/05/29 12:03:40;;;;;;;5.07;2.63;;;13.30;65.40;;;;;;4941374;28;20303;-67
2023/05/29 12:06:08;;;;;;;5.28;2.35;;;13.40;64.90;;;;;;4936883;28;20043;-67
2023/05/29 12:08:36;;;;;;;4.18;2.40;;;13.50;64.60;;;;;;4939280;28;20446;-67
2023/05/29 12:11:04;;;;;;;5.38;1.70;;;13.60;64.50;;;;;;4957640;28;20077;-67
2023/05/29 12:13:32;;;;;;;3.83;2.30;;;13.70;64.20;;;;;;4953348;28;20038;-67
2023/05/29 12:16:03;;;;;;;3.17;1.70;;;13.70;63.90;;;;;;4943903;28;20035;-67
2023/05/29 12:18:31;;;;;;;7.15;1.67;;;13.70;63.70;;;;;;4955563;28;20050;-67
2023/05/29 12:21:00;;;;;;;3.38;1.85;;;13.80;63.60;;;;;;4938903;28;20050;-67
2023/05/29 12:23:28;;;;;;;4.00;1.83;;;13.80;63.40;;;;;;4953515;28;20113;-67
2023/05/29 12:25:56;;;;;;;5.80;1.90;;;13.90;63.20;;;;;;4938449;28;20042;-68
2023/05/29 12:28:23;;;;;;;6.47;2.10;;;13.90;63.30;;;;;;4953658;28;20039;-67
2023/05/29 12:30:51;;;;;;;3.45;1.40;;;13.90;63.30;;;;;;4939111;28;20438;-67
2023/05/29 12:33:36;;;;;;;2.42;1.48;;;13.90;63.40;;;;;;4938414;29;20118;-67
2023/05/29 12:36:09;;;;;;;3.10;1.50;;;13.80;63.20;;;;;;4942881;28;20043;-67
2023/05/29 12:38:52;;;;;;;4.32;1.50;;;13.90;63.20;;;;;;4943436;29;20056;-67
2023/05/29 12:41:35;;;;;;;2.28;1.50;;;13.90;63.10;;;;;;4924438;29;20077;-67
2023/05/29 12:44:05;;;;;;;4.60;1.77;;;14.00;63.10;;;;;;4923302;28;20039;-67
2023/05/29 12:46:46;;;;;;;3.97;1.52;;;13.90;63.90;;;;;;4963229;28;20031;-67
2023/05/29 12:49:13;;;;;;;4.82;1.70;;;13.80;64.60;;;;;;4949825;28;20414;-67
2023/05/29 12:51:45;;;;;;;4.97;1.70;;;13.70;65.00;;;;;;4956496;29;20098;-67
2023/05/29 12:54:13;;;;;;;2.67;1.58;;;13.70;64.70;;;;;;4956809;28;20556;-67
2023/05/29 12:56:41;;;;;;;2.60;1.60;;;13.70;64.60;;;;;;4938808;28;20041;-67
2023/05/29 12:59:08;;;;;;;3.70;1.70;;;13.70;64.20;;;;;;4956539;28;20047;-67
2023/05/29 13:01:38;;;;;;;4.15;1.63;;;13.70;64.10;;;;;;4959566;28;20437;-67
2023/05/29 13:04:09;;;;;;;4.63;1.75;;;13.70;63.80;;;;;;4917470;28;20035;-67
2023/05/29 13:06:39;;;;;;;4.03;1.83;;;13.70;63.80;;;;;;4951657;28;20465;-67
2023/05/29 13:09:07;;;;;;;;;;;13.70;64.20;;;;;;4956099;28;20043;-66
2023/05/29 13:11:35;;;;;;;5.18;1.70;;;13.70;64.20;;;;;;4959326;28;19918;-67
2023/05/29 13:14:02;;;;;;;3.55;1.70;;;13.70;63.90;;;;;;4949224;28;20094;-67
2023/05/29 13:16:30;;;;;;;3.88;1.58;;;13.80;63.90;;;;;;4958686;28;20026;-67
2023/05/29 13:18:57;;;;;;;3.40;1.70;;;13.80;64.00;;;;;;4958802;28;20050;-67
2023/05/29 13:21:24;;;;;;;7.40;1.80;;;13.80;64.10;;;;;;4976054;28;20039;-66
2023/05/29 13:23:52;;;;;;;4.03;1.90;;;13.80;64.20;;;;;;4976178;28;20039;-69
2023/05/29 13:26:21;;;;;;;3.33;1.70;;;13.80;64.10;;;;;;4975671;28;20114;-67
2023/05/29 13:28:49;;;;;;;4.60;1.60;;;13.80;64.10;;;;;;4975723;28;20038;-67
2023/05/29 13:31:16;;;;;;;2.72;1.70;;;13.80;64.20;;;;;;4956281;28;20031;-69
2023/05/29 13:33:44;;;;;;;2.58;1.65;;;13.70;64.20;;;;;;4958094;28;20067;-69
2023/05/29 13:36:12;;;;;;;3.63;1.50;;;13.70;64.50;;;;;;4975596;28;20065;-69
2023/05/29 13:38:40;;;;;;;3.17;1.45;;;13.70;64.40;;;;;;4962052;28;20694;-69
2023/05/29 13:41:07;;;;;;;3.17;1.30;;;13.70;64.40;;;;;;4953846;28;20038;-68
2023/05/29 13:43:35;;;;;;;5.55;1.52;;;13.70;64.40;;;;;;4954712;28;20031;-69
2023/05/29 13:46:02;;;;;;;4.25;1.58;;;13.80;64.30;;;;;;4961410;28;20541;-69
2023/05/29 13:48:30;;;;;;;3.05;1.42;;;13.80;64.10;;;;;;4937579;28;20509;-69
2023/05/29 13:50:57;;;;;;;2.63;1.40;;;13.80;64.00;;;;;;4942279;28;20037;-67
2023/05/29 13:53:24;;;;;;;4.40;1.75;;;13.80;64.10;;;;;;4955218;28;20027;-67
2023/05/29 13:55:52;;;;;;;2.63;1.40;;;13.70;64.00;;;;;;4955651;28;20390;-66
2023/05/29 13:58:19;;;;;;;3.25;1.50;;;13.80;64.20;;;;;;4952709;28;20058;-66
2023/05/29 14:00:47;;;;;;;3.97;1.80;;;13.70;64.20;;;;;;4955857;28;20166;-67
2023/05/29 14:03:14;;;;;;;5.45;1.80;;;13.70;64.30;;;;;;4956305;29;20043;-67
2023/05/29 14:05:42;;;;;;;5.43;2.00;;;13.70;64.90;;;;;;4955412;28;20031;-67
2023/05/29 14:08:09;;;;;;;6.70;1.90;;;13.70;65.50;;;;;;4962090;28;20074;-67
2023/05/29 14:10:37;;;;;;;5.05;1.90;;;13.60;66.20;;;;;;4953693;28;20097;-67
2023/05/29 14:13:04;;;;;;;7.43;1.92;;;13.50;66.10;;;;;;4959569;28;20068;-67
2023/05/29 14:15:31;;;;;;;5.05;1.75;;;13.50;66.00;;;;;;4957865;28;20189;-69
2023/05/29 14:17:59;;;;;;;4.18;1.92;;;13.50;66.00;;;;;;4974489;28;20497;-67
2023/05/29 14:20:26;;;;;;;3.70;1.80;;;13.50;66.00;;;;;;4970001;28;20042;-67
2023/05/29 14:22:54;;;;;;;5.30;1.90;;;13.50;66.20;;;;;;4955635;29;20037;-67
2023/05/29 14:25:22;;;;;;;3.90;1.80;;;13.40;67.00;;;;;;4955686;29;20123;-67
2023/05/29 14:27:49;;;;;;;6.18;1.90;;;13.40;68.00;;;;;;4955912;28;20062;-67
2023/05/29 14:30:16;;;;;;;4.28;1.83;;;13.30;67.80;;;;;;4938507;29;20486;-67
2023/05/29 14:32:44;;;;;;;4.35;1.98;;;13.20;67.80;;;;;;4955737;29;20035;-67
2023/05/29 14:35:11;;;;;;;6.07;1.85;;;13.20;68.90;;;;;;4955573;29;20031;-67
2023/05/29 14:37:39;;;;;;;6.57;2.22;;;13.20;69.10;;;;;;4955194;28;20035;-67
2023/05/29 14:40:07;;;;;;;4.93;1.85;;;13.10;69.20;;;;;;4955237;28;20391;-67
2023/05/29 14:42:34;;;;;;;4.68;1.65;;;13.10;69.40;;;;;;4955586;29;20136;-67
2023/05/29 14:45:02;;;;;;;3.53;1.60;;;13.00;69.40;;;;;;4955380;29;20110;-67
2023/05/29 14:47:29;;;;;;;4.95;1.77;;;13.10;68.80;;;;;;4954919;28;20103;-67
2023/05/29 14:49:56;;;;;;;7.20;1.88;;;13.00;68.60;;;;;;4954435;28;20036;-67
2023/05/29 14:52:24;;;;;;;5.43;1.70;;;13.10;68.50;;;;;;4958066;28;20394;-67
2023/05/29 14:54:51;;;;;;;4.78;1.52;;;13.10;68.10;;;;;;4954533;28;20114;-67
2023/05/29 14:57:19;;;;;;;6.65;1.67;;;13.10;68.30;;;;;;4953406;28;20075;-67
2023/05/29 14:59:47;;;;;;;5.35;1.92;;;13.10;68.10;;;;;;4954235;28;20055;-67
2023/05/29 15:02:14;;;;;;;3.97;1.70;;;13.20;68.10;;;;;;4956626;28;20043;-67
2023/05/29 15:04:42;;;;;;;3.15;1.52;;;13.10;68.30;;;;;;4954352;28;20039;-67
2023/05/29 15:07:09;;;;;;;4.68;1.90;;;13.10;68.00;;;;;;4936688;28;20078;-69
2023/05/29 15:09:36;;;;;;;4.03;1.80;;;13.20;67.90;;;;;;4937002;29;20037;-67
2023/05/29 15:12:07;;;;;;;11.60;2.28;;;13.20;67.60;;;;;;4953356;28;20500;-67
2023/05/29 15:14:34;;;;;;;5.88;1.70;;;13.20;67.40;;;;;;4973076;28;20489;-67
2023/05/29 15:17:02;;;;;;;2.78;1.38;;;13.20;67.00;;;;;;4973965;28;20054;-69
2023/05/29 15:19:30;;;;;;;5.70;1.70;;;13.20;66.90;;;;;;4956980;28;20039;-67
2023/05/29 15:21:58;;;;;;;5.43;1.83;;;13.20;66.40;;;;;;4957225;28;20038;-67
2023/05/29 15:24:25;;;;;;;3.03;1.20;;;13.20;66.10;;;;;;4973145;28;20055;-67
2023/05/29 15:26:52;;;;;;;3.00;1.52;;;13.20;66.00;;;;;;4973939;28;20050;-67
2023/05/29 15:29:20;;;;;;;3.47;1.20;;;13.30;65.90;;;;;;4961739;28;20493;-67
2023/05/29 15:31:48;;;;;;;6.13;1.48;;;13.30;65.50;;;;;;4954566;29;20035;-67
2023/05/29 15:34:15;;;;;;;2.95;1.27;;;13.30;65.30;;;;;;4955108;28;20467;-67
2023/05/29 15:36:42;;;;;;;1.77;1.00;;;13.30;65.10;;;;;;4954272;29;20117;-67
2023/05/29 15:39:10;;;;;;;5.35;1.30;;;13.30;65.00;;;;;;4937251;29;20175;-67
2023/05/29 15:41:37;;;;;;;7.18;1.55;;;13.30;64.80;;;;;;4954728;29;20043;-67
2023/05/29 15:44:05;;;;;;;3.58;1.38;;;13.30;64.70;;;;;;4959997;28;20486;-67
2023/05/29 15:46:32;;;;;;;2.30;1.50;;;13.30;64.70;;;;;;4953713;28;20044;-67
2023/05/29 15:48:59;;;;;;;6.75;1.45;;;13.30;64.80;;;;;;4957011;28;20162;-67
2023/05/29 15:51:27;;;;;;;2.85;1.50;;;13.30;64.70;;;;;;4936445;29;20043;-67
2023/05/29 15:53:55;;;;;;;3.83;1.25;;;13.30;64.60;;;;;;4953422;28;20035;-67
2023/05/29 15:56:27;;;;;;;2.90;1.30;;;13.30;64.80;;;;;;4954126;28;20031;-67
2023/05/29 15:58:54;;;;;;;4.70;1.00;;;13.20;64.70;;;;;;4935559;29;20145;-67
2023/05/29 16:01:22;;;;;;;4.25;1.15;;;13.20;64.80;;;;;;4953627;28;20027;-67
2023/05/29 16:03:49;;;;;;;2.13;1.23;;;13.20;65.40;;;;;;4957950;28;20046;-67
2023/05/29 16:06:17;;;;;;;3.50;1.20;;;13.20;65.10;;;;;;4962950;28;20081;-67
2023/05/29 16:08:45;;;;;;;4.20;1.48;;;13.20;65.10;;;;;;4953161;28;20035;-67
2023/05/29 16:11:13;;;;;;;3.47;1.27;;;13.20;64.80;;;;;;4953444;28;20114;-67
2023/05/29 16:13:41;;;;;;;2.67;1.08;;;13.20;65.00;;;;;;4959405;28;20042;-67
2023/05/29 16:16:08;;;;;;;2.13;1.20;;;13.20;65.00;;;;;;4962280;28;20046;-67
2023/05/29 16:18:36;;;;;;;3.47;1.30;;;13.20;64.90;;;;;;4973359;28;20046;-67
2023/05/29 16:21:03;;;;;;;3.25;1.17;;;13.10;64.70;;;;;;4967861;28;20050;-67
2023/05/29 16:23:31;;;;;;;5.13;1.10;;;13.00;65.00;;;;;;4972910;28;20041;-67
2023/05/29 16:25:58;;;;;;;6.32;1.30;;;13.00;65.30;;;;;;4973459;28;20444;-67
2023/05/29 16:28:25;;;;;;;7.05;1.52;;;12.90;65.60;;;;;;4973299;28;20037;-67
2023/05/29 16:30:53;;;;;;;5.15;1.40;;;12.90;65.50;;;;;;4971445;28;20039;-67
2023/05/29 16:33:20;;;;;;;3.72;1.15;;;12.90;65.60;;;;;;4973243;28;20031;-67
2023/05/29 16:35:48;;;;;;;5.15;1.33;;;12.90;65.60;;;;;;4973273;28;20436;-67
2023/05/29 16:38:16;;;;;;;4.35;1.20;;;12.80;65.80;;;;;;4953496;28;20049;-67
2023/05/29 16:40:43;;;;;;;3.67;1.40;;;12.80;65.80;;;;;;4954056;29;20504;-67
2023/05/29 16:43:10;;;;;;;3.25;1.20;;;12.80;67.60;;;;;;4953741;28;20035;-67
2023/05/29 16:45:38;;;;;;;2.28;1.20;;;12.70;67.30;;;;;;4952901;28;20406;-67
2023/05/29 16:48:05;;;;;;;2.97;1.38;;;12.60;68.20;;;;;;4953086;28;20035;-67
2023/05/29 16:50:33;;;;;;;2.40;1.13;;;12.50;68.60;;;;;;4953327;28;20074;-67
2023/05/29 16:53:01;;;;;;;3.20;1.20;;;12.50;68.80;;;;;;4953132;28;20035;-67
2023/05/29 16:55:28;;;;;;;5.40;1.52;;;12.50;69.10;;;;;;4956540;28;20047;-67
2023/05/29 16:57:56;;;;;;;6.65;1.40;;;12.50;69.00;;;;;;4935652;28;20050;-67